createdAt,value
2018-07-07T00:01:02.834Z,19.00
2018-07-07T00:03:31.190Z,19.00
2018-07-07T00:05:59.571Z,19.00
2018-07-07T00:08:27.979Z,18.98
2018-07-07T00:10:58.391Z,18.96
2018-07-07T00:13:26.762Z,18.97
2018-07-07T00:15:55.128Z,19.02
2018-07-07T00:18:23.472Z,19.06
2018-07-07T00:20:51.945Z,19.06
2018-07-07T00:23:20.262Z,19.02
2018-07-07T00:25:48.647Z,19.00
2018-07-07T00:28:17.047Z,18.97
2018-07-07T00:30:45.388Z,18.95
2018-07-07T00:33:13.740Z,18.94
2018-07-07T00:35:42.116Z,18.91
2018-07-07T00:38:10.468Z,18.89
2018-07-07T00:40:38.831Z,18.86
2018-07-07T00:43:07.156Z,18.86
2018-07-07T00:45:35.543Z,18.88
2018-07-07T00:48:03.879Z,18.88
2018-07-07T00:50:32.263Z,18.87
2018-07-07T00:53:00.625Z,18.87
2018-07-07T00:55:29.720Z,18.78
2018-07-07T00:57:58.036Z,18.77
2018-07-07T01:00:36.484Z,18.75
2018-07-07T01:03:04.924Z,18.72
2018-07-07T01:05:37.243Z,18.68
2018-07-07T01:08:05.848Z,18.64
2018-07-07T01:10:34.390Z,18.62
2018-07-07T01:13:02.870Z,18.58
2018-07-07T01:15:31.217Z,18.57
2018-07-07T01:17:59.548Z,18.56
2018-07-07T01:20:27.896Z,18.55
2018-07-07T01:22:56.248Z,18.51
2018-07-07T01:25:24.626Z,18.50
2018-07-07T01:27:52.977Z,18.51
2018-07-07T01:30:21.412Z,18.49
2018-07-07T01:32:49.830Z,18.48
2018-07-07T01:35:18.404Z,18.52
2018-07-07T01:37:46.907Z,18.49
2018-07-07T01:40:15.259Z,18.45
2018-07-07T01:42:43.595Z,18.41
2018-07-07T01:45:11.989Z,18.43
2018-07-07T01:47:40.354Z,18.40
2018-07-07T01:50:08.896Z,18.37
2018-07-07T01:52:37.273Z,18.37
2018-07-07T01:55:05.701Z,18.39
2018-07-07T01:57:34.080Z,18.38
2018-07-07T02:00:02.428Z,18.41
2018-07-07T02:02:30.771Z,18.46
2018-07-07T02:04:59.137Z,18.42
2018-07-07T02:07:27.486Z,18.37
2018-07-07T02:09:55.813Z,18.35
2018-07-07T02:12:24.180Z,18.32
2018-07-07T02:14:52.500Z,18.33
2018-07-07T02:17:20.820Z,18.31
2018-07-07T02:19:49.144Z,18.27
2018-07-07T02:22:22.298Z,18.24
2018-07-07T02:24:51.640Z,18.25
2018-07-07T02:27:20.593Z,18.22
2018-07-07T02:29:49.265Z,18.23
2018-07-07T02:32:17.635Z,18.21
2018-07-07T02:34:46.455Z,18.20
2018-07-07T02:37:14.940Z,18.18
2018-07-07T02:39:43.280Z,18.11
2018-07-07T02:42:11.707Z,18.12
2018-07-07T02:44:40.026Z,18.11
2018-07-07T02:47:08.388Z,18.08
2018-07-07T02:49:36.733Z,18.05
2018-07-07T02:52:05.101Z,18.04
2018-07-07T02:54:33.402Z,18.04
2018-07-07T02:57:01.852Z,17.99
2018-07-07T02:59:30.314Z,17.96
2018-07-07T03:01:58.825Z,17.98
2018-07-07T03:04:27.202Z,17.96
2018-07-07T03:06:55.553Z,17.91
2018-07-07T03:09:24.172Z,17.89
2018-07-07T03:11:52.524Z,17.83
2018-07-07T03:14:20.879Z,17.80
2018-07-07T03:16:49.420Z,17.80
2018-07-07T03:19:17.768Z,17.76
2018-07-07T03:21:46.140Z,17.68
2018-07-07T03:24:14.504Z,17.64
2018-07-07T03:26:42.862Z,17.58
2018-07-07T03:29:11.217Z,17.52
2018-07-07T03:31:39.505Z,17.41
2018-07-07T03:34:07.869Z,17.38
2018-07-07T03:36:36.300Z,17.43
2018-07-07T03:39:05.908Z,17.47
2018-07-07T03:41:34.281Z,17.49
2018-07-07T03:44:02.699Z,17.48
2018-07-07T03:46:31.045Z,17.47
2018-07-07T03:48:59.413Z,17.44
2018-07-07T03:51:27.768Z,17.43
2018-07-07T03:53:56.157Z,17.42
2018-07-07T03:56:24.482Z,17.41
2018-07-07T03:58:53.096Z,17.41
2018-07-07T04:01:21.387Z,17.41
2018-07-07T04:03:49.761Z,17.40
2018-07-07T04:06:18.112Z,17.32
2018-07-07T04:08:46.439Z,17.27
2018-07-07T04:11:14.816Z,17.28
2018-07-07T04:13:43.189Z,17.28
2018-07-07T04:16:11.572Z,17.29
2018-07-07T04:18:39.889Z,17.23
2018-07-07T04:21:08.257Z,17.20
2018-07-07T04:23:36.724Z,17.16
2018-07-07T04:26:05.083Z,17.13
2018-07-07T04:28:33.430Z,17.10
2018-07-07T04:31:01.822Z,17.09
2018-07-07T04:33:30.193Z,17.17
2018-07-07T04:35:58.583Z,17.31
2018-07-07T04:38:26.920Z,17.44
2018-07-07T04:40:55.253Z,17.51
2018-07-07T04:43:23.616Z,17.57
2018-07-07T04:45:52.514Z,17.61
2018-07-07T04:48:20.831Z,17.69
2018-07-07T04:50:49.183Z,17.88
2018-07-07T04:53:17.594Z,18.39
2018-07-07T04:55:45.917Z,19.01
2018-07-07T04:58:14.234Z,19.59
2018-07-07T05:00:42.571Z,20.07
2018-07-07T05:03:10.906Z,20.58
2018-07-07T05:05:39.687Z,20.99
2018-07-07T05:08:08.121Z,20.74
2018-07-07T05:10:36.517Z,20.19
2018-07-07T05:13:04.876Z,19.71
2018-07-07T05:15:33.295Z,19.24
2018-07-07T05:18:01.576Z,19.10
2018-07-07T05:20:29.967Z,19.13
2018-07-07T05:22:58.316Z,19.26
2018-07-07T05:25:26.660Z,19.78
2018-07-07T05:27:55.006Z,20.60
2018-07-07T05:30:23.395Z,21.37
2018-07-07T05:32:51.863Z,22.26
2018-07-07T05:35:20.205Z,22.78
2018-07-07T05:37:48.619Z,22.84
2018-07-07T05:40:17.005Z,22.33
2018-07-07T05:42:45.365Z,21.83
2018-07-07T05:45:14.103Z,21.24
2018-07-07T05:47:42.541Z,21.08
2018-07-07T05:50:10.875Z,21.51
2018-07-07T05:52:39.306Z,21.97
2018-07-07T05:55:07.616Z,22.02
2018-07-07T05:57:36.374Z,21.98
2018-07-07T06:00:05.009Z,22.02
2018-07-07T06:02:33.384Z,22.14
2018-07-07T06:05:01.713Z,22.22
2018-07-07T06:07:30.053Z,22.26
2018-07-07T06:09:58.378Z,22.37
2018-07-07T06:12:26.736Z,22.43
2018-07-07T06:14:55.145Z,22.43
2018-07-07T06:17:23.531Z,22.33
2018-07-07T06:19:51.917Z,22.38
2018-07-07T06:22:20.297Z,22.39
2018-07-07T06:24:48.678Z,22.35
2018-07-07T06:27:17.034Z,22.30
2018-07-07T06:29:45.358Z,22.25
2018-07-07T06:32:13.696Z,22.17
2018-07-07T06:34:42.100Z,21.96
2018-07-07T06:37:10.453Z,21.92
2018-07-07T06:39:38.940Z,22.10
2018-07-07T06:42:07.308Z,22.26
2018-07-07T06:44:35.666Z,22.13
2018-07-07T06:47:04.077Z,22.02
2018-07-07T06:49:32.427Z,21.94
2018-07-07T06:52:00.727Z,21.88
2018-07-07T06:54:29.064Z,21.82
2018-07-07T06:56:57.449Z,21.59
2018-07-07T06:59:25.826Z,21.73
2018-07-07T07:01:54.175Z,21.79
2018-07-07T07:04:22.526Z,21.70
2018-07-07T07:06:50.891Z,21.64
2018-07-07T07:09:19.269Z,21.65
2018-07-07T07:11:47.602Z,21.60
2018-07-07T07:14:15.939Z,21.58
2018-07-07T07:16:44.328Z,21.52
2018-07-07T07:19:13.195Z,21.52
2018-07-07T07:21:41.769Z,21.74
2018-07-07T07:24:10.154Z,21.90
2018-07-07T07:26:38.495Z,21.76
2018-07-07T07:29:07.229Z,21.67
2018-07-07T07:31:35.567Z,21.62
2018-07-07T07:34:03.939Z,21.59
2018-07-07T07:36:44.596Z,21.67
2018-07-07T07:39:13.131Z,21.59
2018-07-07T07:41:41.685Z,21.42
2018-07-07T07:44:10.103Z,21.32
2018-07-07T07:46:38.480Z,21.32
2018-07-07T07:49:07.437Z,21.31
2018-07-07T07:51:36.247Z,21.35
2018-07-07T07:54:04.598Z,21.36
2018-07-07T07:56:33.057Z,21.33
2018-07-07T07:59:01.448Z,21.37
2018-07-07T08:01:32.857Z,21.40
2018-07-07T08:04:01.193Z,21.48
2018-07-07T08:06:29.533Z,21.51
2018-07-07T08:08:57.881Z,21.51
2018-07-07T08:11:26.328Z,21.56
2018-07-07T08:13:54.690Z,21.56
2018-07-07T08:16:22.997Z,21.53
2018-07-07T08:18:51.317Z,21.54
2018-07-07T08:21:19.648Z,21.63
2018-07-07T08:23:48.013Z,21.67
2018-07-07T08:26:16.366Z,21.74
2018-07-07T08:28:44.728Z,21.89
2018-07-07T08:31:13.068Z,21.89
2018-07-07T08:33:41.480Z,21.91
2018-07-07T08:36:09.781Z,21.96
2018-07-07T08:38:38.118Z,21.96
2018-07-07T08:41:06.491Z,21.93
2018-07-07T08:43:34.800Z,22.06
2018-07-07T08:46:03.182Z,22.14
2018-07-07T08:48:38.067Z,22.07
2018-07-07T08:51:06.593Z,22.08
2018-07-07T08:53:35.004Z,22.26
2018-07-07T08:56:03.386Z,22.44
2018-07-07T08:58:31.776Z,22.51
2018-07-07T09:01:00.122Z,22.46
2018-07-07T09:03:28.568Z,22.47
2018-07-07T09:05:56.939Z,22.31
2018-07-07T09:08:25.328Z,22.21
2018-07-07T09:10:53.668Z,22.21
2018-07-07T09:13:22.031Z,22.20
2018-07-07T09:15:50.484Z,22.33
2018-07-07T09:18:18.855Z,22.49
2018-07-07T09:20:47.262Z,22.59
2018-07-07T09:23:15.658Z,22.71
2018-07-07T09:25:44.024Z,22.56
2018-07-07T09:28:12.411Z,22.59
2018-07-07T09:30:40.763Z,22.72
2018-07-07T09:33:09.178Z,22.76
2018-07-07T09:35:37.577Z,22.89
2018-07-07T09:38:05.965Z,23.04
2018-07-07T09:40:34.370Z,22.88
2018-07-07T09:43:02.710Z,22.56
2018-07-07T09:45:31.065Z,22.51
2018-07-07T09:47:59.419Z,22.59
2018-07-07T09:50:27.748Z,22.63
2018-07-07T09:52:56.111Z,22.65
2018-07-07T09:55:24.458Z,22.66
2018-07-07T09:57:52.808Z,22.64
2018-07-07T10:00:26.538Z,22.68
2018-07-07T10:02:54.913Z,22.77
2018-07-07T10:05:23.279Z,22.78
2018-07-07T10:07:51.872Z,22.87
2018-07-07T10:10:20.231Z,22.98
2018-07-07T10:12:48.604Z,23.06
2018-07-07T10:15:16.993Z,23.18
2018-07-07T10:17:45.367Z,23.22
2018-07-07T10:20:13.776Z,23.16
2018-07-07T10:22:42.140Z,23.27
2018-07-07T10:25:10.507Z,23.38
2018-07-07T10:27:38.876Z,23.44
2018-07-07T10:30:07.334Z,23.39
2018-07-07T10:32:35.810Z,23.45
2018-07-07T10:35:04.143Z,23.44
2018-07-07T10:37:32.608Z,23.41
2018-07-07T10:40:00.899Z,23.33
2018-07-07T10:42:29.251Z,23.32
2018-07-07T10:44:57.566Z,23.36
2018-07-07T10:47:25.969Z,23.40
2018-07-07T10:49:54.295Z,23.38
2018-07-07T10:52:22.617Z,23.36
2018-07-07T10:54:50.987Z,23.41
2018-07-07T10:57:19.369Z,23.52
2018-07-07T10:59:47.716Z,23.61
2018-07-07T11:02:16.046Z,23.65
2018-07-07T11:04:44.447Z,23.74
2018-07-07T11:07:12.803Z,23.70
2018-07-07T11:09:41.275Z,23.63
2018-07-07T11:12:09.771Z,23.61
2018-07-07T11:14:38.040Z,23.53
2018-07-07T11:17:06.493Z,23.52
2018-07-07T11:19:34.995Z,23.55
2018-07-07T11:22:03.362Z,23.57
2018-07-07T11:24:31.714Z,23.64
2018-07-07T11:27:00.064Z,23.81
2018-07-07T11:29:28.586Z,23.96
2018-07-07T11:31:56.919Z,24.02
2018-07-07T11:34:25.246Z,24.08
2018-07-07T11:36:53.617Z,24.03
2018-07-07T11:39:22.003Z,23.93
2018-07-07T11:41:50.369Z,23.84
2018-07-07T11:44:18.767Z,23.79
2018-07-07T11:46:47.142Z,23.82
2018-07-07T11:49:15.506Z,23.79
2018-07-07T11:51:43.850Z,23.80
2018-07-07T11:54:12.241Z,23.97
2018-07-07T11:56:40.591Z,24.24
2018-07-07T11:59:09.033Z,24.43
2018-07-07T12:01:37.485Z,24.53
2018-07-07T12:04:05.881Z,24.45
2018-07-07T12:06:34.252Z,24.35
2018-07-07T12:09:02.617Z,24.23
2018-07-07T12:11:31.050Z,24.20
2018-07-07T12:13:59.341Z,24.31
2018-07-07T12:16:27.777Z,24.44
2018-07-07T12:18:56.119Z,24.43
2018-07-07T12:21:27.434Z,24.53
2018-07-07T12:23:55.764Z,24.63
2018-07-07T12:26:24.145Z,24.61
2018-07-07T12:28:52.503Z,24.68
2018-07-07T12:31:20.966Z,24.71
2018-07-07T12:33:49.339Z,24.78
2018-07-07T12:36:17.880Z,24.83
2018-07-07T12:38:46.195Z,24.91
2018-07-07T12:41:14.532Z,25.09
2018-07-07T12:43:42.908Z,25.22
2018-07-07T12:46:11.217Z,25.19
2018-07-07T12:48:39.587Z,25.14
2018-07-07T12:51:07.955Z,24.87
2018-07-07T12:53:36.313Z,24.78
2018-07-07T12:56:04.899Z,24.77
2018-07-07T12:58:33.248Z,24.90
2018-07-07T13:01:01.636Z,25.13
2018-07-07T13:03:30.005Z,25.19
2018-07-07T13:05:58.423Z,25.02
2018-07-07T13:08:27.017Z,24.92
2018-07-07T13:10:55.397Z,24.91
2018-07-07T13:13:23.852Z,24.92
2018-07-07T13:15:52.389Z,24.91
2018-07-07T13:18:20.723Z,24.87
2018-07-07T13:20:49.168Z,24.82
2018-07-07T13:23:17.830Z,24.86
2018-07-07T13:25:46.210Z,24.96
2018-07-07T13:28:14.557Z,25.00
2018-07-07T13:30:42.987Z,24.93
2018-07-07T13:33:11.378Z,24.87
2018-07-07T13:35:39.758Z,24.84
2018-07-07T13:38:08.124Z,24.86
2018-07-07T13:40:36.603Z,24.88
2018-07-07T13:43:04.987Z,24.83
2018-07-07T13:45:33.352Z,24.81
2018-07-07T13:48:01.757Z,24.84
2018-07-07T13:50:30.147Z,24.94
2018-07-07T13:52:58.631Z,25.11
2018-07-07T13:55:27.328Z,25.14
2018-07-07T13:57:55.719Z,25.12
2018-07-07T14:00:24.046Z,25.09
2018-07-07T14:02:52.428Z,25.06
2018-07-07T14:05:20.803Z,25.11
2018-07-07T14:07:49.152Z,25.12
2018-07-07T14:10:17.509Z,25.17
2018-07-07T14:12:45.899Z,25.22
2018-07-07T14:15:14.246Z,25.34
2018-07-07T14:17:42.631Z,25.45
2018-07-07T14:20:11.085Z,25.40
2018-07-07T14:22:39.431Z,25.32
2018-07-07T14:25:07.816Z,25.20
2018-07-07T14:27:36.172Z,25.10
2018-07-07T14:30:04.941Z,24.98
2018-07-07T14:32:33.327Z,25.11
2018-07-07T14:35:01.690Z,25.25
2018-07-07T14:37:29.986Z,25.33
2018-07-07T14:40:00.457Z,25.36
2018-07-07T14:42:44.746Z,25.44
2018-07-07T14:45:16.431Z,25.47
2018-07-07T14:47:46.160Z,25.53
2018-07-07T14:50:15.025Z,25.51
2018-07-07T14:52:43.763Z,25.49
2018-07-07T14:55:12.602Z,25.51
2018-07-07T14:57:41.346Z,25.63
2018-07-07T15:00:09.756Z,25.73
2018-07-07T15:02:38.080Z,25.67
2018-07-07T15:05:07.255Z,25.56
2018-07-07T15:07:35.737Z,25.48
2018-07-07T15:12:55.475Z,25.23
2018-07-07T15:15:23.926Z,25.23
2018-07-07T15:17:52.696Z,25.22
2018-07-07T15:20:21.042Z,25.28
2018-07-07T15:22:49.459Z,25.24
2018-07-07T15:25:17.809Z,25.24
2018-07-07T15:27:46.145Z,25.23
2018-07-07T15:30:14.529Z,25.23
2018-07-07T15:32:42.869Z,25.16
2018-07-07T15:35:11.310Z,25.11
2018-07-07T15:37:39.727Z,25.21
2018-07-07T15:40:08.148Z,25.34
2018-07-07T15:42:36.535Z,25.38
2018-07-07T15:45:05.125Z,25.40
2018-07-07T15:47:33.524Z,25.47
2018-07-07T15:50:01.932Z,25.50
2018-07-07T15:52:30.271Z,25.55
2018-07-07T15:54:58.663Z,25.53
2018-07-07T15:57:26.993Z,25.53
2018-07-07T15:59:55.415Z,25.43
2018-07-07T16:02:23.735Z,25.36
2018-07-07T16:04:52.094Z,25.42
2018-07-07T16:07:20.555Z,25.52
2018-07-07T16:09:48.981Z,25.59
2018-07-07T16:12:17.307Z,25.64
2018-07-07T16:14:46.112Z,25.69
2018-07-07T16:17:14.468Z,25.79
2018-07-07T16:19:42.828Z,25.74
2018-07-07T16:22:11.199Z,25.73
2018-07-07T16:24:39.589Z,25.70
2018-07-07T16:27:07.971Z,25.54
2018-07-07T16:29:36.339Z,25.43
2018-07-07T16:32:04.816Z,25.33
2018-07-07T16:34:33.238Z,25.43
2018-07-07T16:37:01.821Z,25.56
2018-07-07T16:39:30.184Z,25.42
2018-07-07T16:41:58.575Z,25.25
2018-07-07T16:44:27.484Z,25.14
2018-07-07T16:46:56.133Z,25.09
2018-07-07T16:49:24.502Z,25.06
2018-07-07T16:51:53.187Z,25.10
2018-07-07T16:54:22.536Z,25.16
2018-07-07T16:56:51.325Z,25.22
2018-07-07T16:59:19.735Z,25.27
2018-07-07T17:01:49.204Z,25.29
2018-07-07T17:04:17.603Z,25.23
2018-07-07T17:06:45.978Z,25.19
2018-07-07T17:09:14.300Z,25.17
2018-07-07T17:11:42.676Z,25.13
2018-07-07T17:14:11.909Z,25.13
2018-07-07T17:16:42.834Z,25.14
2018-07-07T17:19:12.344Z,25.18
2018-07-07T17:21:40.944Z,25.21
2018-07-07T17:24:09.348Z,25.22
2018-07-07T17:26:37.743Z,25.25
2018-07-07T17:29:06.466Z,25.28
2018-07-07T17:31:35.041Z,25.25
2018-07-07T17:34:03.546Z,25.15
2018-07-07T17:36:31.897Z,25.05
2018-07-07T17:39:01.220Z,24.91
2018-07-07T17:41:29.614Z,24.86
2018-07-07T17:43:58.078Z,24.82
2018-07-07T17:46:26.611Z,24.74
2018-07-07T17:48:55.073Z,24.64
2018-07-07T17:51:23.453Z,24.60
2018-07-07T17:53:51.827Z,24.56
2018-07-07T17:56:20.194Z,24.55
2018-07-07T17:58:48.619Z,24.56
2018-07-07T18:01:16.968Z,24.55
2018-07-07T18:03:45.674Z,24.52
2018-07-07T18:06:14.153Z,24.50
2018-07-07T18:08:42.509Z,24.52
2018-07-07T18:11:10.898Z,24.44
2018-07-07T18:13:39.352Z,24.40
2018-07-07T18:16:07.779Z,24.33
2018-07-07T18:18:36.272Z,24.26
2018-07-07T18:21:04.700Z,24.19
2018-07-07T18:23:33.076Z,24.11
2018-07-07T18:26:01.697Z,24.04
2018-07-07T18:28:30.060Z,24.02
2018-07-07T18:30:58.444Z,23.98
2018-07-07T18:33:26.804Z,23.92
2018-07-07T18:35:55.200Z,23.87
2018-07-07T18:38:23.592Z,23.78
2018-07-07T18:40:51.933Z,23.72
2018-07-07T18:43:21.273Z,23.66
2018-07-07T18:45:49.677Z,23.57
2018-07-07T18:48:18.105Z,23.54
2018-07-07T18:50:46.414Z,23.49
2018-07-07T18:53:14.769Z,23.45
2018-07-07T18:55:43.122Z,23.40
2018-07-07T18:58:11.490Z,23.31
2018-07-07T19:00:39.867Z,23.27
2018-07-07T19:03:08.196Z,23.21
2018-07-07T19:05:36.527Z,23.19
2018-07-07T19:08:04.956Z,23.15
2018-07-07T19:10:33.380Z,23.09
2018-07-07T19:13:01.750Z,23.01
2018-07-07T19:15:30.213Z,22.95
2018-07-07T19:17:59.305Z,22.90
2018-07-07T19:21:36.020Z,22.82
2018-07-07T19:24:09.641Z,22.78
2018-07-07T19:26:43.496Z,22.74
2018-07-07T19:29:12.410Z,22.71
2018-07-07T19:32:43.843Z,22.65
2018-07-07T19:35:17.850Z,22.57
2018-07-07T19:37:46.234Z,22.49
2018-07-07T19:40:14.577Z,22.41
2018-07-07T19:42:42.993Z,22.35
2018-07-07T19:45:11.503Z,22.29
2018-07-07T19:47:39.865Z,22.21
2018-07-07T19:50:08.310Z,22.15
2018-07-07T19:52:36.793Z,22.08
2018-07-07T19:55:05.221Z,22.02
2018-07-07T19:57:33.551Z,21.96
2018-07-07T20:00:02.041Z,21.86
2018-07-07T20:02:30.445Z,21.80
2018-07-07T20:04:58.795Z,21.67
2018-07-07T20:07:27.180Z,21.58
2018-07-07T20:09:55.500Z,21.51
2018-07-07T20:12:23.853Z,21.47
2018-07-07T20:14:52.237Z,21.38
2018-07-07T20:17:31.962Z,21.30
2018-07-07T20:20:36.905Z,21.21
2018-07-07T20:23:06.796Z,21.14
2018-07-07T20:25:35.261Z,21.09
2018-07-07T20:28:09.058Z,21.04
2018-07-07T20:30:37.545Z,21.01
2018-07-07T20:33:06.686Z,20.95
2018-07-07T20:35:35.089Z,20.89
2018-07-07T20:38:03.525Z,20.86
2018-07-07T20:40:31.908Z,20.82
2018-07-07T20:43:00.384Z,20.77
2018-07-07T20:45:28.977Z,20.70
2018-07-07T20:47:57.331Z,20.67
2018-07-07T20:50:25.667Z,20.61
2018-07-07T20:52:54.185Z,20.56
2018-07-07T20:55:22.512Z,20.53
2018-07-07T20:57:50.855Z,20.46
2018-07-07T21:00:19.208Z,20.44
2018-07-07T21:02:47.569Z,20.38
2018-07-07T21:05:15.912Z,20.33
2018-07-07T21:07:44.321Z,20.26
2018-07-07T21:10:12.772Z,20.20
2018-07-07T21:12:41.234Z,20.14
2018-07-07T21:15:09.698Z,20.10
2018-07-07T21:17:38.077Z,20.05
2018-07-07T21:20:06.888Z,20.00
2018-07-07T21:22:35.377Z,19.95
2018-07-07T21:25:03.731Z,19.90
2018-07-07T21:27:32.089Z,19.83
2018-07-07T21:30:00.448Z,19.78
2018-07-07T21:32:28.806Z,19.72
2018-07-07T21:34:57.626Z,19.69
2018-07-07T21:37:26.112Z,19.64
2018-07-07T21:39:54.456Z,19.58
2018-07-07T21:42:22.812Z,19.54
2018-07-07T21:44:52.227Z,19.46
2018-07-07T21:47:20.572Z,19.42
2018-07-07T21:49:48.952Z,19.40
2018-07-07T21:52:17.316Z,19.40
2018-07-07T21:54:45.699Z,19.35
2018-07-07T21:57:19.151Z,19.30
2018-07-07T21:59:47.565Z,19.23
2018-07-07T22:02:21.229Z,19.21
2018-07-07T22:04:54.844Z,19.17
2018-07-07T22:07:28.628Z,19.10
2018-07-07T22:09:56.977Z,19.05
2018-07-07T22:12:25.367Z,18.97
2018-07-07T22:14:53.718Z,18.91
2018-07-07T22:17:22.084Z,18.91
2018-07-07T22:19:50.422Z,18.90
2018-07-07T22:22:18.837Z,18.83
2018-07-07T22:24:47.177Z,18.79
2018-07-07T22:27:16.021Z,18.78
2018-07-07T22:29:44.356Z,18.75
2018-07-07T22:32:17.985Z,18.71
2018-07-07T22:34:46.349Z,18.63
2018-07-07T22:37:14.775Z,18.58
2018-07-07T22:39:44.088Z,18.56
2018-07-07T22:42:14.706Z,18.56
2018-07-07T22:44:44.092Z,18.52
2018-07-07T22:47:12.450Z,18.45
2018-07-07T22:49:40.765Z,18.37
2018-07-07T22:52:10.039Z,18.31
2018-07-07T22:54:38.427Z,18.24
2018-07-07T22:57:06.896Z,18.19
2018-07-07T22:59:35.351Z,18.22
2018-07-07T23:02:03.745Z,18.23
2018-07-07T23:04:32.083Z,18.20
2018-07-07T23:07:00.512Z,18.15
2018-07-07T23:09:28.861Z,18.06
2018-07-07T23:11:57.233Z,17.99
2018-07-07T23:14:25.807Z,17.93
2018-07-07T23:16:58.586Z,17.88
2018-07-07T23:19:27.685Z,17.84
2018-07-07T23:21:56.595Z,17.84
2018-07-07T23:24:24.970Z,17.81
2018-07-07T23:26:53.467Z,17.76
2018-07-07T23:29:21.814Z,17.72
2018-07-07T23:31:50.178Z,17.70
2018-07-07T23:34:18.599Z,17.64
2018-07-07T23:36:46.950Z,17.57
2018-07-07T23:39:15.348Z,17.54
2018-07-07T23:41:43.789Z,17.49
2018-07-07T23:44:12.138Z,17.42
2018-07-07T23:46:40.488Z,17.40
2018-07-07T23:49:08.846Z,17.39
2018-07-07T23:51:37.342Z,17.34
2018-07-07T23:54:05.708Z,17.29
2018-07-07T23:56:34.094Z,17.26
2018-07-07T23:59:02.429Z,17.15
